sensor_id;sensor_type;location;lat;lon;timestamp;P1;durP1;ratioP1;P2;durP2;ratioP2
8104;SDS011;4095;48.942;9.104;2022-12-29T00:01:50;6.27;;;1.97;;
8104;SDS011;4095;48.942;9.104;2022-12-29T00:04:17;3.17;;;1.80;;
8104;SDS011;4095;48.942;9.104;2022-12-29T00:06:43;2.60;;;2.07;;
8104;SDS011;4095;48.942;9.104;2022-12-29T00:09:10;3.10;;;1.77;;
8104;SDS011;4095;48.942;9.104;2022-12-29T00:11:37;3.10;;;1.80;;
8104;SDS011;4095;48.942;9.104;2022-12-29T00:14:03;3.63;;;1.90;;
8104;SDS011;4095;48.942;9.104;2022-12-29T00:16:47;3.60;;;2.17;;
8104;SDS011;4095;48.942;9.104;2022-12-29T00:19:12;2.60;;;1.70;;
8104;SDS011;4095;48.942;9.104;2022-12-29T00:21:57;1.90;;;1.70;;
8104;SDS011;4095;48.942;9.104;2022-12-29T00:24:42;2.17;;;1.70;;
8104;SDS011;4095;48.942;9.104;2022-12-29T00:27:28;2.10;;;1.70;;
8104;SDS011;4095;48.942;9.104;2022-12-29T00:30:14;3.93;;;1.70;;
8104;SDS011;4095;48.942;9.104;2022-12-29T00:33:11;3.40;;;1.90;;
8104;SDS011;4095;48.942;9.104;2022-12-29T00:36:01;3.97;;;1.70;;
8104;SDS011;4095;48.942;9.104;2022-12-29T00:38:49;2.77;;;1.53;;
8104;SDS011;4095;48.942;9.104;2022-12-29T00:41:38;2.87;;;1.70;;
8104;SDS011;4095;48.942;9.104;2022-12-29T00:44:22;1.97;;;1.60;;
8104;SDS011;4095;48.942;9.104;2022-12-29T00:46:48;4.40;;;1.80;;
8104;SDS011;4095;48.942;9.104;2022-12-29T00:49:13;2.57;;;1.80;;
8104;SDS011;4095;48.942;9.104;2022-12-29T00:52:08;2.70;;;2.07;;
8104;SDS011;4095;48.942;9.104;2022-12-29T00:54:36;2.63;;;1.40;;
8104;SDS011;4095;48.942;9.104;2022-12-29T00:57:03;2.40;;;1.60;;
8104;SDS011;4095;48.942;9.104;2022-12-29T00:59:30;2.00;;;1.80;;
8104;SDS011;4095;48.942;9.104;2022-12-29T01:01:56;4.43;;;1.87;;
8104;SDS011;4095;48.942;9.104;2022-12-29T01:04:22;3.03;;;1.70;;
8104;SDS011;4095;48.942;9.104;2022-12-29T01:06:49;2.53;;;1.70;;
8104;SDS011;4095;48.942;9.104;2022-12-29T01:09:15;4.63;;;1.97;;
8104;SDS011;4095;48.942;9.104;2022-12-29T01:12:00;2.17;;;1.67;;
8104;SDS011;4095;48.942;9.104;2022-12-29T01:14:26;2.27;;;1.83;;
8104;SDS011;4095;48.942;9.104;2022-12-29T01:16:52;2.80;;;1.80;;
8104;SDS011;4095;48.942;9.104;2022-12-29T01:19:19;2.47;;;1.60;;
8104;SDS011;4095;48.942;9.104;2022-12-29T01:21:45;2.10;;;1.53;;
8104;SDS011;4095;48.942;9.104;2022-12-29T01:24:12;3.83;;;1.60;;
8104;SDS011;4095;48.942;9.104;2022-12-29T01:26:39;3.70;;;1.80;;
8104;SDS011;4095;48.942;9.104;2022-12-29T01:29:04;3.93;;;1.87;;
8104;SDS011;4095;48.942;9.104;2022-12-29T01:31:30;4.57;;;1.80;;
8104;SDS011;4095;48.942;9.104;2022-12-29T01:33:55;2.70;;;1.80;;
8104;SDS011;4095;48.942;9.104;2022-12-29T01:36:20;1.87;;;1.67;;
8104;SDS011;4095;48.942;9.104;2022-12-29T01:38:46;2.70;;;1.60;;
8104;SDS011;4095;48.942;9.104;2022-12-29T01:41:12;4.23;;;1.97;;
8104;SDS011;4095;48.942;9.104;2022-12-29T01:46:04;2.97;;;1.50;;
8104;SDS011;4095;48.942;9.104;2022-12-29T01:48:38;3.20;;;1.50;;
8104;SDS011;4095;48.942;9.104;2022-12-29T01:51:04;2.73;;;1.47;;
8104;SDS011;4095;48.942;9.104;2022-12-29T01:53:30;2.40;;;1.67;;
8104;SDS011;4095;48.942;9.104;2022-12-29T01:55:59;3.00;;;1.60;;
8104;SDS011;4095;48.942;9.104;2022-12-29T01:58:29;2.03;;;1.53;;
8104;SDS011;4095;48.942;9.104;2022-12-29T02:00:57;2.33;;;1.23;;
8104;SDS011;4095;48.942;9.104;2022-12-29T02:03:24;2.33;;;1.63;;
8104;SDS011;4095;48.942;9.104;2022-12-29T02:05:59;3.83;;;1.80;;
8104;SDS011;4095;48.942;9.104;2022-12-29T02:08:29;2.20;;;1.53;;
8104;SDS011;4095;48.942;9.104;2022-12-29T02:10:55;5.50;;;1.60;;
8104;SDS011;4095;48.942;9.104;2022-12-29T02:13:24;2.03;;;1.43;;
8104;SDS011;4095;48.942;9.104;2022-12-29T02:16:00;3.13;;;1.67;;
8104;SDS011;4095;48.942;9.104;2022-12-29T02:24:37;2.20;;;1.63;;
8104;SDS011;4095;48.942;9.104;2022-12-29T02:30:12;1.87;;;1.43;;
8104;SDS011;4095;48.942;9.104;2022-12-29T02:32:59;2.63;;;1.40;;
8104;SDS011;4095;48.942;9.104;2022-12-29T02:35:39;1.80;;;1.10;;
8104;SDS011;4095;48.942;9.104;2022-12-29T02:40:51;1.80;;;1.30;;
8104;SDS011;4095;48.942;9.104;2022-12-29T02:45:55;2.10;;;1.40;;
8104;SDS011;4095;48.942;9.104;2022-12-29T02:51:24;4.37;;;1.50;;
8104;SDS011;4095;48.942;9.104;2022-12-29T02:53:54;4.50;;;1.60;;
8104;SDS011;4095;48.942;9.104;2022-12-29T02:56:40;2.00;;;1.20;;
8104;SDS011;4095;48.942;9.104;2022-12-29T02:59:05;2.33;;;1.20;;
8104;SDS011;4095;48.942;9.104;2022-12-29T03:04:38;3.63;;;1.30;;
8104;SDS011;4095;48.942;9.104;2022-12-29T03:07:19;3.67;;;1.40;;
8104;SDS011;4095;48.942;9.104;2022-12-29T03:12:30;3.17;;;1.40;;
8104;SDS011;4095;48.942;9.104;2022-12-29T03:15:28;2.00;;;1.27;;
8104;SDS011;4095;48.942;9.104;2022-12-29T03:18:47;1.63;;;1.23;;
8104;SDS011;4095;48.942;9.104;2022-12-29T03:24:52;3.00;;;1.40;;
8104;SDS011;4095;48.942;9.104;2022-12-29T03:27:23;2.43;;;1.27;;
8104;SDS011;4095;48.942;9.104;2022-12-29T03:30:05;2.17;;;1.30;;
8104;SDS011;4095;48.942;9.104;2022-12-29T03:32:35;3.70;;;1.60;;
8104;SDS011;4095;48.942;9.104;2022-12-29T03:35:05;2.87;;;1.20;;
8104;SDS011;4095;48.942;9.104;2022-12-29T03:37:37;2.80;;;1.60;;
8104;SDS011;4095;48.942;9.104;2022-12-29T03:40:06;2.53;;;1.40;;
8104;SDS011;4095;48.942;9.104;2022-12-29T03:42:33;3.87;;;1.30;;
8104;SDS011;4095;48.942;9.104;2022-12-29T03:45:00;1.90;;;1.40;;
8104;SDS011;4095;48.942;9.104;2022-12-29T03:47:26;3.23;;;1.30;;
8104;SDS011;4095;48.942;9.104;2022-12-29T03:49:51;2.67;;;1.60;;
8104;SDS011;4095;48.942;9.104;2022-12-29T03:52:17;1.90;;;1.40;;
8104;SDS011;4095;48.942;9.104;2022-12-29T03:54:43;2.30;;;1.20;;
8104;SDS011;4095;48.942;9.104;2022-12-29T03:57:10;3.60;;;1.40;;
8104;SDS011;4095;48.942;9.104;2022-12-29T03:59:35;2.40;;;1.27;;
8104;SDS011;4095;48.942;9.104;2022-12-29T04:02:01;1.57;;;1.17;;
8104;SDS011;4095;48.942;9.104;2022-12-29T04:04:26;2.53;;;1.20;;
8104;SDS011;4095;48.942;9.104;2022-12-29T04:06:52;2.07;;;1.27;;
8104;SDS011;4095;48.942;9.104;2022-12-29T04:09:17;2.90;;;1.30;;
8104;SDS011;4095;48.942;9.104;2022-12-29T04:11:43;2.80;;;1.07;;
8104;SDS011;4095;48.942;9.104;2022-12-29T04:14:08;3.53;;;1.40;;
8104;SDS011;4095;48.942;9.104;2022-12-29T04:16:34;2.50;;;1.70;;
8104;SDS011;4095;48.942;9.104;2022-12-29T04:19:01;2.30;;;1.50;;
8104;SDS011;4095;48.942;9.104;2022-12-29T04:21:26;3.43;;;1.23;;
8104;SDS011;4095;48.942;9.104;2022-12-29T04:23:52;3.83;;;1.60;;
8104;SDS011;4095;48.942;9.104;2022-12-29T04:26:17;1.60;;;0.97;;
8104;SDS011;4095;48.942;9.104;2022-12-29T04:28:43;2.67;;;1.27;;
8104;SDS011;4095;48.942;9.104;2022-12-29T04:31:08;2.23;;;1.30;;
8104;SDS011;4095;48.942;9.104;2022-12-29T04:33:34;1.97;;;1.07;;
8104;SDS011;4095;48.942;9.104;2022-12-29T04:35:59;2.53;;;1.53;;
8104;SDS011;4095;48.942;9.104;2022-12-29T04:38:25;3.73;;;1.40;;
8104;SDS011;4095;48.942;9.104;2022-12-29T04:40:51;1.70;;;1.20;;
8104;SDS011;4095;48.942;9.104;2022-12-29T04:43:17;1.97;;;1.30;;
8104;SDS011;4095;48.942;9.104;2022-12-29T04:45:45;2.40;;;1.47;;
8104;SDS011;4095;48.942;9.104;2022-12-29T04:48:11;2.87;;;1.50;;
8104;SDS011;4095;48.942;9.104;2022-12-29T04:50:38;3.73;;;1.30;;
8104;SDS011;4095;48.942;9.104;2022-12-29T04:53:04;2.50;;;1.30;;
8104;SDS011;4095;48.942;9.104;2022-12-29T04:55:30;2.37;;;1.30;;
8104;SDS011;4095;48.942;9.104;2022-12-29T04:57:56;2.23;;;1.27;;
8104;SDS011;4095;48.942;9.104;2022-12-29T05:00:21;2.80;;;1.43;;
8104;SDS011;4095;48.942;9.104;2022-12-29T05:02:47;3.73;;;1.53;;
8104;SDS011;4095;48.942;9.104;2022-12-29T05:05:12;2.47;;;1.40;;
8104;SDS011;4095;48.942;9.104;2022-12-29T05:07:38;3.23;;;1.50;;
8104;SDS011;4095;48.942;9.104;2022-12-29T05:10:04;3.63;;;1.63;;
8104;SDS011;4095;48.942;9.104;2022-12-29T05:12:31;1.40;;;1.17;;
8104;SDS011;4095;48.942;9.104;2022-12-29T05:14:57;1.77;;;1.40;;
8104;SDS011;4095;48.942;9.104;2022-12-29T05:17:22;1.80;;;1.30;;
8104;SDS011;4095;48.942;9.104;2022-12-29T05:19:48;1.83;;;1.27;;
8104;SDS011;4095;48.942;9.104;2022-12-29T05:22:13;2.37;;;1.40;;
8104;SDS011;4095;48.942;9.104;2022-12-29T05:24:39;3.67;;;1.67;;
8104;SDS011;4095;48.942;9.104;2022-12-29T05:27:05;6.17;;;1.60;;
8104;SDS011;4095;48.942;9.104;2022-12-29T05:29:30;2.10;;;1.37;;
8104;SDS011;4095;48.942;9.104;2022-12-29T05:31:56;2.33;;;1.50;;
8104;SDS011;4095;48.942;9.104;2022-12-29T05:34:21;2.00;;;1.20;;
8104;SDS011;4095;48.942;9.104;2022-12-29T05:36:47;2.00;;;1.50;;
8104;SDS011;4095;48.942;9.104;2022-12-29T05:39:12;2.17;;;1.57;;
8104;SDS011;4095;48.942;9.104;2022-12-29T05:41:38;2.10;;;1.47;;
8104;SDS011;4095;48.942;9.104;2022-12-29T05:44:03;2.37;;;1.47;;
8104;SDS011;4095;48.942;9.104;2022-12-29T05:46:29;3.80;;;1.80;;
8104;SDS011;4095;48.942;9.104;2022-12-29T05:48:54;3.80;;;1.67;;
8104;SDS011;4095;48.942;9.104;2022-12-29T05:51:20;2.57;;;1.40;;
8104;SDS011;4095;48.942;9.104;2022-12-29T05:53:45;2.03;;;1.60;;
8104;SDS011;4095;48.942;9.104;2022-12-29T05:56:11;2.30;;;1.60;;
8104;SDS011;4095;48.942;9.104;2022-12-29T05:58:36;3.33;;;1.60;;
8104;SDS011;4095;48.942;9.104;2022-12-29T06:01:02;2.70;;;1.50;;
8104;SDS011;4095;48.942;9.104;2022-12-29T06:03:27;2.97;;;1.73;;
8104;SDS011;4095;48.942;9.104;2022-12-29T06:05:53;3.77;;;2.10;;
8104;SDS011;4095;48.942;9.104;2022-12-29T06:08:18;2.90;;;1.83;;
8104;SDS011;4095;48.942;9.104;2022-12-29T06:10:44;2.43;;;1.70;;
8104;SDS011;4095;48.942;9.104;2022-12-29T06:13:10;2.47;;;1.60;;
8104;SDS011;4095;48.942;9.104;2022-12-29T06:15:35;3.93;;;1.90;;
8104;SDS011;4095;48.942;9.104;2022-12-29T06:18:01;3.13;;;1.70;;
8104;SDS011;4095;48.942;9.104;2022-12-29T06:20:27;3.07;;;1.47;;
8104;SDS011;4095;48.942;9.104;2022-12-29T06:22:52;2.37;;;1.67;;
8104;SDS011;4095;48.942;9.104;2022-12-29T06:25:18;2.30;;;1.73;;
8104;SDS011;4095;48.942;9.104;2022-12-29T06:27:43;2.40;;;1.90;;
8104;SDS011;4095;48.942;9.104;2022-12-29T06:30:09;4.10;;;1.73;;
8104;SDS011;4095;48.942;9.104;2022-12-29T06:32:35;2.73;;;1.60;;
8104;SDS011;4095;48.942;9.104;2022-12-29T06:35:02;2.43;;;1.87;;
8104;SDS011;4095;48.942;9.104;2022-12-29T06:37:28;3.53;;;1.90;;
8104;SDS011;4095;48.942;9.104;2022-12-29T06:39:54;2.27;;;1.60;;
8104;SDS011;4095;48.942;9.104;2022-12-29T06:42:19;2.37;;;1.70;;
8104;SDS011;4095;48.942;9.104;2022-12-29T06:44:45;2.70;;;1.70;;
8104;SDS011;4095;48.942;9.104;2022-12-29T06:47:11;3.00;;;1.63;;
8104;SDS011;4095;48.942;9.104;2022-12-29T06:49:36;3.77;;;1.93;;
8104;SDS011;4095;48.942;9.104;2022-12-29T06:52:02;3.63;;;1.80;;
8104;SDS011;4095;48.942;9.104;2022-12-29T06:54:29;2.63;;;1.63;;
8104;SDS011;4095;48.942;9.104;2022-12-29T06:56:55;3.07;;;1.70;;
8104;SDS011;4095;48.942;9.104;2022-12-29T06:59:20;4.87;;;1.83;;
8104;SDS011;4095;48.942;9.104;2022-12-29T07:01:46;2.80;;;1.93;;
8104;SDS011;4095;48.942;9.104;2022-12-29T07:04:12;3.33;;;1.67;;
8104;SDS011;4095;48.942;9.104;2022-12-29T07:06:37;3.63;;;2.37;;
8104;SDS011;4095;48.942;9.104;2022-12-29T07:09:05;3.30;;;2.10;;
8104;SDS011;4095;48.942;9.104;2022-12-29T07:11:31;5.33;;;1.93;;
8104;SDS011;4095;48.942;9.104;2022-12-29T07:13:57;3.57;;;2.10;;
8104;SDS011;4095;48.942;9.104;2022-12-29T07:16:22;3.60;;;2.00;;
8104;SDS011;4095;48.942;9.104;2022-12-29T07:18:48;4.10;;;1.90;;
8104;SDS011;4095;48.942;9.104;2022-12-29T07:21:13;3.60;;;1.70;;
8104;SDS011;4095;48.942;9.104;2022-12-29T07:23:39;2.97;;;2.10;;
8104;SDS011;4095;48.942;9.104;2022-12-29T07:26:06;3.53;;;1.97;;
8104;SDS011;4095;48.942;9.104;2022-12-29T07:28:33;5.93;;;2.20;;
8104;SDS011;4095;48.942;9.104;2022-12-29T07:31:00;2.30;;;2.07;;
8104;SDS011;4095;48.942;9.104;2022-12-29T07:33:28;4.53;;;2.20;;
8104;SDS011;4095;48.942;9.104;2022-12-29T07:35:54;3.57;;;1.93;;
8104;SDS011;4095;48.942;9.104;2022-12-29T07:38:20;5.50;;;2.03;;
8104;SDS011;4095;48.942;9.104;2022-12-29T07:40:45;2.00;;;1.80;;
8104;SDS011;4095;48.942;9.104;2022-12-29T07:43:11;2.93;;;1.90;;
8104;SDS011;4095;48.942;9.104;2022-12-29T07:45:36;3.67;;;1.97;;
8104;SDS011;4095;48.942;9.104;2022-12-29T07:48:02;2.70;;;1.90;;
8104;SDS011;4095;48.942;9.104;2022-12-29T07:50:28;2.47;;;1.83;;
8104;SDS011;4095;48.942;9.104;2022-12-29T07:52:53;2.17;;;1.93;;
8104;SDS011;4095;48.942;9.104;2022-12-29T07:55:19;2.20;;;1.77;;
8104;SDS011;4095;48.942;9.104;2022-12-29T07:57:44;2.33;;;1.93;;
8104;SDS011;4095;48.942;9.104;2022-12-29T08:00:11;3.03;;;1.80;;
8104;SDS011;4095;48.942;9.104;2022-12-29T08:02:37;4.37;;;1.90;;
8104;SDS011;4095;48.942;9.104;2022-12-29T08:05:03;2.33;;;1.87;;
8104;SDS011;4095;48.942;9.104;2022-12-29T08:07:29;2.13;;;1.70;;
8104;SDS011;4095;48.942;9.104;2022-12-29T08:09:55;4.07;;;2.00;;
8104;SDS011;4095;48.942;9.104;2022-12-29T08:12:21;3.60;;;1.97;;
8104;SDS011;4095;48.942;9.104;2022-12-29T08:14:46;2.63;;;1.70;;
8104;SDS011;4095;48.942;9.104;2022-12-29T08:17:12;5.57;;;2.27;;
8104;SDS011;4095;48.942;9.104;2022-12-29T08:19:37;2.60;;;1.73;;
8104;SDS011;4095;48.942;9.104;2022-12-29T08:22:03;2.10;;;1.90;;
8104;SDS011;4095;48.942;9.104;2022-12-29T08:24:29;3.37;;;2.10;;
8104;SDS011;4095;48.942;9.104;2022-12-29T08:26:54;4.30;;;2.00;;
8104;SDS011;4095;48.942;9.104;2022-12-29T08:29:20;2.30;;;1.70;;
8104;SDS011;4095;48.942;9.104;2022-12-29T08:31:46;3.03;;;1.90;;
8104;SDS011;4095;48.942;9.104;2022-12-29T08:34:12;6.47;;;2.10;;
8104;SDS011;4095;48.942;9.104;2022-12-29T08:36:38;3.43;;;1.87;;
8104;SDS011;4095;48.942;9.104;2022-12-29T08:39:03;3.30;;;1.70;;
8104;SDS011;4095;48.942;9.104;2022-12-29T08:41:29;3.53;;;1.80;;
8104;SDS011;4095;48.942;9.104;2022-12-29T08:43:54;2.27;;;1.70;;
8104;SDS011;4095;48.942;9.104;2022-12-29T08:46:20;3.27;;;1.70;;
8104;SDS011;4095;48.942;9.104;2022-12-29T08:48:46;4.13;;;2.00;;
8104;SDS011;4095;48.942;9.104;2022-12-29T08:51:11;3.30;;;1.70;;
8104;SDS011;4095;48.942;9.104;2022-12-29T08:53:37;3.97;;;2.27;;
8104;SDS011;4095;48.942;9.104;2022-12-29T08:56:03;3.03;;;1.90;;
8104;SDS011;4095;48.942;9.104;2022-12-29T08:58:29;3.00;;;2.10;;
8104;SDS011;4095;48.942;9.104;2022-12-29T09:00:55;3.83;;;2.40;;
8104;SDS011;4095;48.942;9.104;2022-12-29T09:03:22;4.10;;;2.13;;
8104;SDS011;4095;48.942;9.104;2022-12-29T09:05:51;4.30;;;2.40;;
8104;SDS011;4095;48.942;9.104;2022-12-29T09:08:17;3.33;;;2.10;;
8104;SDS011;4095;48.942;9.104;2022-12-29T09:10:43;3.50;;;1.90;;
8104;SDS011;4095;48.942;9.104;2022-12-29T09:13:10;3.47;;;2.00;;
8104;SDS011;4095;48.942;9.104;2022-12-29T09:15:37;2.40;;;1.90;;
8104;SDS011;4095;48.942;9.104;2022-12-29T09:18:02;2.70;;;2.00;;
8104;SDS011;4095;48.942;9.104;2022-12-29T09:20:28;4.27;;;2.00;;
8104;SDS011;4095;48.942;9.104;2022-12-29T09:22:54;3.47;;;2.00;;
8104;SDS011;4095;48.942;9.104;2022-12-29T09:25:19;6.77;;;2.00;;
8104;SDS011;4095;48.942;9.104;2022-12-29T09:27:47;2.57;;;2.20;;
8104;SDS011;4095;48.942;9.104;2022-12-29T09:30:14;4.13;;;2.50;;
8104;SDS011;4095;48.942;9.104;2022-12-29T09:32:40;3.50;;;2.10;;
8104;SDS011;4095;48.942;9.104;2022-12-29T09:35:06;4.67;;;1.80;;
8104;SDS011;4095;48.942;9.104;2022-12-29T09:37:31;3.03;;;2.00;;
8104;SDS011;4095;48.942;9.104;2022-12-29T09:39:57;4.20;;;1.73;;
8104;SDS011;4095;48.942;9.104;2022-12-29T09:47:33;3.37;;;1.60;;
8104;SDS011;4095;48.942;9.104;2022-12-29T09:50:02;1.60;;;1.50;;
8104;SDS011;4095;48.942;9.104;2022-12-29T09:52:32;4.93;;;1.50;;
8104;SDS011;4095;48.942;9.104;2022-12-29T09:55:15;3.90;;;1.60;;
8104;SDS011;4095;48.942;9.104;2022-12-29T09:57:57;3.40;;;1.77;;
8104;SDS011;4095;48.942;9.104;2022-12-29T10:00:48;5.13;;;1.50;;
8104;SDS011;4095;48.942;9.104;2022-12-29T10:03:22;3.93;;;1.80;;
8104;SDS011;4095;48.942;9.104;2022-12-29T10:06:11;2.53;;;1.60;;
8104;SDS011;4095;48.942;9.104;2022-12-29T10:09:38;2.93;;;1.10;;
8104;SDS011;4095;48.942;9.104;2022-12-29T10:16:58;2.87;;;1.33;;
8104;SDS011;4095;48.942;9.104;2022-12-29T10:20:20;1.50;;;1.37;;
8104;SDS011;4095;48.942;9.104;2022-12-29T10:22:38;1.37;;;1.07;;
8104;SDS011;4095;48.942;9.104;2022-12-29T10:25:20;1.33;;;1.13;;
8104;SDS011;4095;48.942;9.104;2022-12-29T10:27:49;2.67;;;1.50;;
8104;SDS011;4095;48.942;9.104;2022-12-29T10:30:16;2.67;;;1.60;;
8104;SDS011;4095;48.942;9.104;2022-12-29T10:32:45;1.90;;;1.30;;
8104;SDS011;4095;48.942;9.104;2022-12-29T10:35:19;1.33;;;1.23;;
8104;SDS011;4095;48.942;9.104;2022-12-29T10:37:58;1.23;;;1.00;;
8104;SDS011;4095;48.942;9.104;2022-12-29T10:43:00;1.97;;;1.33;;
8104;SDS011;4095;48.942;9.104;2022-12-29T10:45:31;3.30;;;1.30;;
8104;SDS011;4095;48.942;9.104;2022-12-29T10:50:24;1.50;;;1.00;;
8104;SDS011;4095;48.942;9.104;2022-12-29T10:52:51;1.70;;;1.37;;
8104;SDS011;4095;48.942;9.104;2022-12-29T10:55:19;1.87;;;1.27;;
8104;SDS011;4095;48.942;9.104;2022-12-29T10:57:49;1.97;;;1.27;;
8104;SDS011;4095;48.942;9.104;2022-12-29T11:00:19;1.70;;;1.03;;
8104;SDS011;4095;48.942;9.104;2022-12-29T11:05:49;1.70;;;0.93;;
8104;SDS011;4095;48.942;9.104;2022-12-29T11:08:25;1.50;;;0.93;;
8104;SDS011;4095;48.942;9.104;2022-12-29T11:11:02;1.43;;;1.00;;
8104;SDS011;4095;48.942;9.104;2022-12-29T11:13:34;2.20;;;1.50;;
8104;SDS011;4095;48.942;9.104;2022-12-29T11:16:13;3.17;;;1.33;;
8104;SDS011;4095;48.942;9.104;2022-12-29T11:18:39;1.40;;;1.03;;
8104;SDS011;4095;48.942;9.104;2022-12-29T11:21:23;2.57;;;1.30;;
8104;SDS011;4095;48.942;9.104;2022-12-29T11:24:03;1.60;;;1.20;;
8104;SDS011;4095;48.942;9.104;2022-12-29T11:26:43;2.40;;;1.50;;
8104;SDS011;4095;48.942;9.104;2022-12-29T11:31:41;1.67;;;1.00;;
8104;SDS011;4095;48.942;9.104;2022-12-29T11:34:31;1.53;;;1.10;;
8104;SDS011;4095;48.942;9.104;2022-12-29T11:37:00;2.23;;;1.43;;
8104;SDS011;4095;48.942;9.104;2022-12-29T11:45:21;2.23;;;1.27;;
8104;SDS011;4095;48.942;9.104;2022-12-29T11:47:53;3.47;;;1.30;;
8104;SDS011;4095;48.942;9.104;2022-12-29T11:50:24;2.67;;;1.57;;
8104;SDS011;4095;48.942;9.104;2022-12-29T11:55:53;1.10;;;0.90;;
8104;SDS011;4095;48.942;9.104;2022-12-29T11:58:30;1.47;;;1.10;;
8104;SDS011;4095;48.942;9.104;2022-12-29T12:01:15;3.33;;;1.30;;
8104;SDS011;4095;48.942;9.104;2022-12-29T12:03:48;1.37;;;1.20;;
8104;SDS011;4095;48.942;9.104;2022-12-29T12:06:33;1.47;;;1.23;;
8104;SDS011;4095;48.942;9.104;2022-12-29T12:09:02;2.70;;;1.10;;
8104;SDS011;4095;48.942;9.104;2022-12-29T12:11:32;1.83;;;1.00;;
8104;SDS011;4095;48.942;9.104;2022-12-29T12:20:04;2.50;;;0.90;;
8104;SDS011;4095;48.942;9.104;2022-12-29T12:25:00;3.73;;;1.37;;
8104;SDS011;4095;48.942;9.104;2022-12-29T12:27:51;0.67;;;0.67;;
8104;SDS011;4095;48.942;9.104;2022-12-29T12:30:23;0.80;;;0.80;;
8104;SDS011;4095;48.942;9.104;2022-12-29T12:32:56;1.43;;;0.87;;
8104;SDS011;4095;48.942;9.104;2022-12-29T13:00:40;1.30;;;1.20;;
8104;SDS011;4095;48.942;9.104;2022-12-29T13:11:43;1.23;;;1.10;;
8104;SDS011;4095;48.942;9.104;2022-12-29T13:14:22;1.40;;;1.10;;
8104;SDS011;4095;48.942;9.104;2022-12-29T13:17:13;1.70;;;1.17;;
8104;SDS011;4095;48.942;9.104;2022-12-29T13:28:16;1.87;;;1.23;;
8104;SDS011;4095;48.942;9.104;2022-12-29T13:31:08;1.70;;;1.10;;
8104;SDS011;4095;48.942;9.104;2022-12-29T13:36:27;3.17;;;1.70;;
8104;SDS011;4095;48.942;9.104;2022-12-29T13:39:05;1.97;;;1.40;;
8104;SDS011;4095;48.942;9.104;2022-12-29T13:41:39;2.37;;;1.60;;
8104;SDS011;4095;48.942;9.104;2022-12-29T13:44:09;2.37;;;1.53;;
8104;SDS011;4095;48.942;9.104;2022-12-29T13:46:42;2.57;;;1.63;;
8104;SDS011;4095;48.942;9.104;2022-12-29T13:51:35;1.70;;;1.50;;
8104;SDS011;4095;48.942;9.104;2022-12-29T13:54:17;5.03;;;1.40;;
8104;SDS011;4095;48.942;9.104;2022-12-29T13:59:52;1.53;;;1.10;;
8104;SDS011;4095;48.942;9.104;2022-12-29T14:02:38;1.30;;;1.00;;
8104;SDS011;4095;48.942;9.104;2022-12-29T14:07:43;1.67;;;1.00;;
8104;SDS011;4095;48.942;9.104;2022-12-29T14:10:29;1.40;;;1.00;;
8104;SDS011;4095;48.942;9.104;2022-12-29T14:13:20;1.87;;;1.10;;
8104;SDS011;4095;48.942;9.104;2022-12-29T14:15:52;1.47;;;1.00;;
8104;SDS011;4095;48.942;9.104;2022-12-29T14:18:29;1.00;;;0.90;;
8104;SDS011;4095;48.942;9.104;2022-12-29T14:20:58;1.47;;;1.03;;
8104;SDS011;4095;48.942;9.104;2022-12-29T14:23:40;2.13;;;1.30;;
8104;SDS011;4095;48.942;9.104;2022-12-29T14:26:50;2.00;;;1.37;;
8104;SDS011;4095;48.942;9.104;2022-12-29T14:28:56;1.60;;;1.40;;
8104;SDS011;4095;48.942;9.104;2022-12-29T14:31:40;2.23;;;1.27;;
8104;SDS011;4095;48.942;9.104;2022-12-29T14:36:38;2.23;;;1.60;;
8104;SDS011;4095;48.942;9.104;2022-12-29T14:42:03;3.20;;;1.50;;
8104;SDS011;4095;48.942;9.104;2022-12-29T14:44:29;3.83;;;1.70;;
8104;SDS011;4095;48.942;9.104;2022-12-29T14:49:27;1.83;;;1.40;;
8104;SDS011;4095;48.942;9.104;2022-12-29T14:57:19;3.10;;;1.73;;
8104;SDS011;4095;48.942;9.104;2022-12-29T14:59:45;2.33;;;1.70;;
8104;SDS011;4095;48.942;9.104;2022-12-29T15:02:15;3.10;;;1.70;;
8104;SDS011;4095;48.942;9.104;2022-12-29T15:04:43;3.27;;;2.20;;
8104;SDS011;4095;48.942;9.104;2022-12-29T15:07:11;4.27;;;3.20;;
8104;SDS011;4095;48.942;9.104;2022-12-29T15:12:30;9.73;;;6.30;;
8104;SDS011;4095;48.942;9.104;2022-12-29T15:15:18;12.97;;;8.50;;
8104;SDS011;4095;48.942;9.104;2022-12-29T15:17:48;13.27;;;9.07;;
8104;SDS011;4095;48.942;9.104;2022-12-29T15:20:27;8.70;;;5.63;;
8104;SDS011;4095;48.942;9.104;2022-12-29T15:25:27;3.27;;;2.60;;
8104;SDS011;4095;48.942;9.104;2022-12-29T15:27:54;4.60;;;2.10;;
8104;SDS011;4095;48.942;9.104;2022-12-29T15:30:29;3.77;;;2.13;;
8104;SDS011;4095;48.942;9.104;2022-12-29T15:32:55;3.40;;;1.70;;
8104;SDS011;4095;48.942;9.104;2022-12-29T15:35:31;2.20;;;1.50;;
8104;SDS011;4095;48.942;9.104;2022-12-29T15:37:59;3.33;;;1.40;;
8104;SDS011;4095;48.942;9.104;2022-12-29T15:40:32;2.43;;;1.63;;
8104;SDS011;4095;48.942;9.104;2022-12-29T15:43:10;2.80;;;1.63;;
8104;SDS011;4095;48.942;9.104;2022-12-29T15:46:07;3.83;;;1.97;;
8104;SDS011;4095;48.942;9.104;2022-12-29T15:48:37;2.27;;;1.50;;
8104;SDS011;4095;48.942;9.104;2022-12-29T15:51:03;2.00;;;1.40;;
8104;SDS011;4095;48.942;9.104;2022-12-29T15:53:58;2.67;;;1.60;;
8104;SDS011;4095;48.942;9.104;2022-12-29T15:56:24;1.77;;;1.53;;
8104;SDS011;4095;48.942;9.104;2022-12-29T15:58:52;3.93;;;1.93;;
8104;SDS011;4095;48.942;9.104;2022-12-29T16:01:19;2.40;;;1.80;;
8104;SDS011;4095;48.942;9.104;2022-12-29T16:03:57;1.90;;;1.60;;
8104;SDS011;4095;48.942;9.104;2022-12-29T16:06:37;3.17;;;1.80;;
8104;SDS011;4095;48.942;9.104;2022-12-29T16:09:46;2.90;;;2.20;;
8104;SDS011;4095;48.942;9.104;2022-12-29T16:12:07;2.10;;;1.90;;
8104;SDS011;4095;48.942;9.104;2022-12-29T16:14:42;2.50;;;1.97;;
8104;SDS011;4095;48.942;9.104;2022-12-29T16:17:12;3.23;;;2.40;;
8104;SDS011;4095;48.942;9.104;2022-12-29T16:19:41;3.77;;;2.30;;
8104;SDS011;4095;48.942;9.104;2022-12-29T16:22:14;4.33;;;1.90;;
8104;SDS011;4095;48.942;9.104;2022-12-29T16:24:49;3.30;;;2.37;;
8104;SDS011;4095;48.942;9.104;2022-12-29T16:27:26;3.17;;;2.20;;
8104;SDS011;4095;48.942;9.104;2022-12-29T16:30:05;7.77;;;4.80;;
8104;SDS011;4095;48.942;9.104;2022-12-29T16:32:46;10.17;;;8.53;;
8104;SDS011;4095;48.942;9.104;2022-12-29T16:35:16;9.60;;;7.60;;
8104;SDS011;4095;48.942;9.104;2022-12-29T16:37:42;4.93;;;3.80;;
8104;SDS011;4095;48.942;9.104;2022-12-29T16:47:43;3.80;;;2.57;;
8104;SDS011;4095;48.942;9.104;2022-12-29T16:50:18;2.90;;;2.30;;
8104;SDS011;4095;48.942;9.104;2022-12-29T16:52:48;3.23;;;2.67;;
8104;SDS011;4095;48.942;9.104;2022-12-29T16:55:18;2.97;;;2.40;;
8104;SDS011;4095;48.942;9.104;2022-12-29T16:57:44;3.57;;;2.60;;
8104;SDS011;4095;48.942;9.104;2022-12-29T17:00:19;3.53;;;2.50;;
8104;SDS011;4095;48.942;9.104;2022-12-29T17:02:51;4.20;;;3.47;;
8104;SDS011;4095;48.942;9.104;2022-12-29T17:05:19;4.27;;;3.50;;
8104;SDS011;4095;48.942;9.104;2022-12-29T17:07:45;3.70;;;2.90;;
8104;SDS011;4095;48.942;9.104;2022-12-29T17:10:11;4.13;;;2.60;;
8104;SDS011;4095;48.942;9.104;2022-12-29T17:12:40;2.77;;;2.30;;
8104;SDS011;4095;48.942;9.104;2022-12-29T17:15:24;3.40;;;2.30;;
8104;SDS011;4095;48.942;9.104;2022-12-29T17:17:55;3.13;;;2.03;;
8104;SDS011;4095;48.942;9.104;2022-12-29T17:20:22;4.70;;;2.27;;
8104;SDS011;4095;48.942;9.104;2022-12-29T17:22:49;2.80;;;2.10;;
8104;SDS011;4095;48.942;9.104;2022-12-29T17:25:19;2.50;;;2.10;;
8104;SDS011;4095;48.942;9.104;2022-12-29T17:27:54;3.50;;;2.60;;
8104;SDS011;4095;48.942;9.104;2022-12-29T17:30:25;4.77;;;3.47;;
8104;SDS011;4095;48.942;9.104;2022-12-29T17:33:06;3.40;;;2.70;;
8104;SDS011;4095;48.942;9.104;2022-12-29T17:35:37;3.13;;;2.37;;
8104;SDS011;4095;48.942;9.104;2022-12-29T17:38:03;4.17;;;2.40;;
8104;SDS011;4095;48.942;9.104;2022-12-29T17:40:38;2.10;;;1.67;;
8104;SDS011;4095;48.942;9.104;2022-12-29T17:43:03;2.80;;;1.73;;
8104;SDS011;4095;48.942;9.104;2022-12-29T17:45:29;4.30;;;1.73;;
8104;SDS011;4095;48.942;9.104;2022-12-29T17:47:56;2.70;;;1.47;;
8104;SDS011;4095;48.942;9.104;2022-12-29T17:50:25;2.80;;;1.60;;
8104;SDS011;4095;48.942;9.104;2022-12-29T17:53:12;2.13;;;1.50;;
8104;SDS011;4095;48.942;9.104;2022-12-29T17:55:40;1.70;;;1.47;;
8104;SDS011;4095;48.942;9.104;2022-12-29T17:58:26;2.67;;;1.60;;
8104;SDS011;4095;48.942;9.104;2022-12-29T18:00:56;3.27;;;1.57;;
8104;SDS011;4095;48.942;9.104;2022-12-29T18:03:37;3.40;;;1.40;;